Time;durP1;ratioP1;P1;durP2;ratioP2;P2;SDS_P1;SDS_P2;PMS_P1;PMS_P2;Temp;Humidity;BMP_temperature;BMP_pressure;BME280_temperature;BME280_humidity;BME280_pressure;Samples;Min_cycle;Max_cycle;Signal;HPM_P1;HPM_P2
2023/08/29 04:48:24;;;;;;;3.60;3.30;;;;;;;;;;5070743;23;20318;-81
2023/08/29 04:50:51;;;;;;;3.23;2.93;;;;;;;;;;5059471;28;20227;-82
2023/08/29 04:53:18;;;;;;;3.47;3.10;;;;;;;;;;5066160;28;20202;-83
2023/08/29 04:55:45;;;;;;;3.47;3.10;;;;;;;;;;5061998;28;20248;-82
2023/08/29 04:58:12;;;;;;;5.20;3.10;;;;;;;;;;5062195;28;20706;-82
2023/08/29 05:00:39;;;;;;;9.47;3.07;;;;;;;;;;5064489;28;20241;-82
2023/08/29 05:03:06;;;;;;;2.93;2.73;;;;;;;;;;5065781;28;20198;-83
2023/08/29 05:05:35;;;;;;;5.20;3.20;;;;;;;;;;5063231;27;20260;-83
2023/08/29 05:08:03;;;;;;;3.33;3.00;;;;;;;;;;5062197;28;20710;-82
2023/08/29 05:10:31;;;;;;;6.73;2.90;;;;;;;;;;5051284;28;20241;-82
2023/08/29 05:12:58;;;;;;;5.27;3.20;;;;;;;;;;5067327;28;20214;-81
2023/08/29 05:15:25;;;;;;;3.50;3.20;;;;;;;;;;5061929;28;20234;-81
2023/08/29 05:17:52;;;;;;;3.90;3.43;;;;;;;;;;5065149;28;20691;-81
2023/08/29 05:20:19;;;;;;;3.83;2.70;;;;;;;;;;5060254;28;20229;-81
2023/08/29 05:22:48;;;;;;;6.63;3.10;;;;;;;;;;5048883;28;20197;-82
2023/08/29 05:25:15;;;;;;;3.57;3.00;;;;;;;;;;5060437;28;20214;-83
2023/08/29 05:27:42;;;;;;;3.33;3.03;;;;;;;;;;5064082;28;20221;-83
2023/08/29 05:30:09;;;;;;;5.40;3.10;;;;;;;;;;5064457;28;20219;-83
2023/08/29 05:32:38;;;;;;;3.30;3.00;;;;;;;;;;5059088;28;20244;-82
2023/08/29 05:35:06;;;;;;;3.83;2.77;;;;;;;;;;5053170;28;20219;-83
2023/08/29 05:37:33;;;;;;;3.07;2.87;;;;;;;;;;5060487;28;20222;-82
2023/08/29 05:40:06;;;;;;;3.07;2.80;;;;;;;;;;5056433;28;20205;-83
2023/08/29 05:42:33;;;;;;;3.30;2.93;;;;;;;;;;5060984;28;20210;-82
2023/08/29 05:45:00;;;;;;;6.90;2.90;;;;;;;;;;5062662;28;20210;-82
2023/08/29 05:47:27;;;;;;;4.03;2.73;;;;;;;;;;5054746;28;20226;-82
2023/08/29 05:49:54;;;;;;;6.60;3.03;;;;;;;;;;5064933;28;20585;-83
2023/08/29 05:52:21;;;;;;;3.00;2.80;;;;;;;;;;5064338;28;20639;-83
2023/08/29 05:54:49;;;;;;;3.27;2.90;;;;;;;;;;5052317;28;20209;-82
2023/08/29 05:57:17;;;;;;;3.40;3.07;;;;;;;;;;5067371;28;20245;-83
2023/08/29 05:59:44;;;;;;;4.67;2.73;;;;;;;;;;5062997;28;20559;-82
2023/08/29 06:02:11;;;;;;;3.07;2.80;;;;;;;;;;5057612;28;20702;-82
2023/08/29 06:04:38;;;;;;;4.17;2.93;;;;;;;;;;5061007;28;20209;-82
2023/08/29 06:07:07;;;;;;;8.67;3.17;;;;;;;;;;5056088;28;20304;-82
2023/08/29 06:09:34;;;;;;;3.37;3.07;;;;;;;;;;5048643;28;20202;-82
2023/08/29 06:12:01;;;;;;;2.90;2.70;;;;;;;;;;5062434;28;20233;-82
2023/08/29 06:14:31;;;;;;;3.70;3.00;;;;;;;;;;5059728;28;20259;-82
2023/08/29 06:16:58;;;;;;;3.10;2.90;;;;;;;;;;5056518;28;20234;-82
2023/08/29 06:19:25;;;;;;;3.53;2.93;;;;;;;;;;5063900;28;20686;-82
2023/08/29 06:21:52;;;;;;;3.47;3.17;;;;;;;;;;5060530;28;20226;-82
2023/08/29 06:24:19;;;;;;;3.17;2.83;;;;;;;;;;5040451;28;20226;-85
2023/08/29 06:26:46;;;;;;;3.33;3.03;;;;;;;;;;5064600;28;20222;-82
2023/08/29 06:29:14;;;;;;;3.93;3.10;;;;;;;;;;5041703;28;20233;-83
2023/08/29 06:31:42;;;;;;;3.80;3.30;;;;;;;;;;5039766;28;20230;-83
2023/08/29 06:34:10;;;;;;;3.30;3.00;;;;;;;;;;5044118;28;20209;-83
2023/08/29 06:36:37;;;;;;;3.37;2.97;;;;;;;;;;5038678;28;20265;-83
2023/08/29 06:39:04;;;;;;;3.50;3.20;;;;;;;;;;5051111;28;20239;-82
2023/08/29 06:41:31;;;;;;;3.90;3.50;;;;;;;;;;5051348;28;20275;-83
2023/08/29 06:43:58;;;;;;;3.50;3.20;;;;;;;;;;5048385;28;20648;-82
2023/08/29 06:46:25;;;;;;;3.40;3.10;;;;;;;;;;5051100;28;20234;-83
2023/08/29 06:48:54;;;;;;;4.97;3.13;;;;;;;;;;5051598;28;20230;-82
2023/08/29 06:51:21;;;;;;;4.13;3.10;;;;;;;;;;5050735;28;20232;-82
2023/08/29 06:53:48;;;;;;;3.43;3.13;;;;;;;;;;5051140;28;20229;-82
2023/08/29 06:56:15;;;;;;;5.17;3.30;;;;;;;;;;5037663;28;20710;-82
2023/08/29 06:58:42;;;;;;;3.37;3.07;;;;;;;;;;5043429;28;20234;-82
2023/08/29 07:01:09;;;;;;;3.33;2.60;;;;;;;;;;5040015;28;20726;-83
2023/08/29 07:03:36;;;;;;;3.23;2.80;;;;;;;;;;5050371;28;20212;-83
2023/08/29 07:06:04;;;;;;;3.40;2.97;;;;;;;;;;5050137;28;20256;-82
2023/08/29 07:08:33;;;;;;;5.77;3.30;;;;;;;;;;5050837;28;20601;-84
2023/08/29 07:11:00;;;;;;;3.30;2.60;;;;;;;;;;5050191;28;20248;-84
2023/08/29 07:13:27;;;;;;;4.87;3.00;;;;;;;;;;5050273;28;20222;-84
2023/08/29 07:15:55;;;;;;;3.87;3.57;;;;;;;;;;5051815;28;20225;-84
2023/08/29 07:18:22;;;;;;;2.63;2.43;;;;;;;;;;5042797;28;20237;-84
2023/08/29 07:20:49;;;;;;;3.23;2.80;;;;;;;;;;5050141;28;20283;-83
2023/08/29 07:23:18;;;;;;;3.80;2.90;;;;;;;;;;5050513;28;20280;-84
2023/08/29 07:25:45;;;;;;;3.53;2.80;;;;;;;;;;5057954;28;20241;-84
2023/08/29 07:28:13;;;;;;;2.90;2.70;;;;;;;;;;5050156;28;20229;-82
2023/08/29 07:30:45;;;;;;;4.87;2.97;;;;;;;;;;5049714;28;20241;-82
2023/08/29 07:33:12;;;;;;;2.93;2.73;;;;;;;;;;5050076;28;20217;-82
2023/08/29 07:35:39;;;;;;;3.00;2.70;;;;;;;;;;5051289;28;20230;-83
2023/08/29 07:38:07;;;;;;;4.57;3.37;;;;;;;;;;5056928;28;20229;-83
2023/08/29 07:40:35;;;;;;;6.83;2.90;;;;;;;;;;5049084;28;20241;-82
2023/08/29 07:43:03;;;;;;;4.37;2.93;;;;;;;;;;5049881;28;20664;-82
2023/08/29 07:45:30;;;;;;;3.07;2.80;;;;;;;;;;5049680;28;20299;-83
2023/08/29 07:47:57;;;;;;;3.10;2.80;;;;;;;;;;5050177;28;20240;-82
2023/08/29 07:50:24;;;;;;;4.67;2.80;;;;;;;;;;5049573;28;20233;-83
2023/08/29 07:52:52;;;;;;;2.70;2.47;;;;;;;;;;5049101;28;20229;-82
2023/08/29 07:55:19;;;;;;;4.03;2.40;;;;;;;;;;5049130;28;20238;-83
2023/08/29 07:57:48;;;;;;;6.63;3.13;;;;;;;;;;5050132;28;20723;-83
2023/08/29 08:00:16;;;;;;;3.20;2.57;;;;;;;;;;5049801;28;20558;-83
2023/08/29 08:02:43;;;;;;;5.60;2.37;;;;;;;;;;5051183;28;20205;-83
2023/08/29 08:05:12;;;;;;;3.60;2.67;;;;;;;;;;5050819;28;20214;-82
2023/08/29 08:07:39;;;;;;;3.37;2.43;;;;;;;;;;5051434;28;20225;-82
2023/08/29 08:10:07;;;;;;;4.50;2.80;;;;;;;;;;5048824;28;20206;-82
2023/08/29 08:12:34;;;;;;;3.13;2.93;;;;;;;;;;5050295;28;20314;-83
2023/08/29 08:15:04;;;;;;;2.60;2.40;;;;;;;;;;5054284;28;20205;-81
2023/08/29 08:17:31;;;;;;;2.70;2.50;;;;;;;;;;5056594;28;20741;-83
2023/08/29 08:19:58;;;;;;;3.25;2.90;;;;;;;;;;5054926;28;20210;-83
2023/08/29 08:22:26;;;;;;;3.90;2.38;;;;;;;;;;5055572;28;20222;-82
2023/08/29 08:24:53;;;;;;;3.03;2.10;;;;;;;;;;5072675;28;20214;-82
2023/08/29 08:27:20;;;;;;;3.03;2.50;;;;;;;;;;5054332;28;20245;-83
2023/08/29 08:29:47;;;;;;;4.90;2.40;;;;;;;;;;5053293;28;20210;-83
2023/08/29 08:32:15;;;;;;;2.72;2.22;;;;;;;;;;5053743;28;20226;-82
2023/08/29 08:34:42;;;;;;;3.90;2.50;;;;;;;;;;5054935;28;20213;-83
2023/08/29 08:37:09;;;;;;;2.20;2.10;;;;;;;;;;5056575;28;20241;-83
2023/08/29 08:39:36;;;;;;;2.22;2.00;;;;;;;;;;5063532;28;20212;-84
2023/08/29 08:42:04;;;;;;;2.67;1.90;;;;;;;;;;5055089;28;20721;-83
2023/08/29 08:44:32;;;;;;;2.70;2.50;;;;;;;;;;5055174;28;20214;-83
2023/08/29 08:47:00;;;;;;;2.80;2.17;;;;;;;;;;5047584;28;20226;-82
2023/08/29 08:49:28;;;;;;;3.05;1.77;;;;;;;;;;5054760;28;20206;-83
2023/08/29 08:51:56;;;;;;;2.15;1.95;;;;;;;;;;5062824;28;20226;-84
2023/08/29 08:54:25;;;;;;;3.80;2.00;;;;;;;;;;5054472;28;20221;-83
2023/08/29 08:56:52;;;;;;;2.38;2.17;;;;;;;;;;5054940;28;20751;-83
2023/08/29 08:59:19;;;;;;;3.30;1.77;;;;;;;;;;5054500;28;20206;-83
2023/08/29 09:01:46;;;;;;;2.00;1.90;;;;;;;;;;5061391;28;20237;-84
2023/08/29 09:04:14;;;;;;;3.05;2.05;;;;;;;;;;5058451;28;20761;-84
2023/08/29 09:06:42;;;;;;;4.78;2.20;;;;;;;;;;5063880;28;20244;-83
2023/08/29 09:09:16;;;;;;;1.92;1.80;;;;;;;;;;5058039;28;20213;-83
2023/08/29 09:11:43;;;;;;;3.10;2.08;;;;;;;;;;5055660;28;20279;-83
2023/08/29 09:14:11;;;;;;;1.90;1.80;;;;;;;;;;5053379;28;20226;-83
2023/08/29 09:16:38;;;;;;;1.80;1.70;;;;;;;;;;5061866;28;20244;-83
2023/08/29 09:19:06;;;;;;;3.53;2.30;;;;;;;;;;5054484;28;20583;-83
2023/08/29 09:21:35;;;;;;;2.00;1.90;;;;;;;;;;5053485;28;20233;-83
2023/08/29 09:24:04;;;;;;;2.65;2.25;;;;;;;;;;5044857;28;20298;-83
2023/08/29 09:26:32;;;;;;;1.95;1.85;;;;;;;;;;5060938;28;20221;-83
2023/08/29 09:28:59;;;;;;;2.58;2.15;;;;;;;;;;5053044;28;20222;-83
2023/08/29 09:31:26;;;;;;;2.22;1.70;;;;;;;;;;5049088;28;20240;-83
2023/08/29 09:33:53;;;;;;;2.10;1.70;;;;;;;;;;5061273;28;20221;-83
2023/08/29 09:36:21;;;;;;;1.88;1.77;;;;;;;;;;5054860;28;20229;-83
2023/08/29 09:38:49;;;;;;;1.63;1.52;;;;;;;;;;5062125;28;20228;-83
2023/08/29 09:41:18;;;;;;;2.65;1.60;;;;;;;;;;5054440;28;20225;-83
2023/08/29 09:43:49;;;;;;;1.98;1.63;;;;;;;;;;5054653;28;20206;-83
2023/08/29 09:46:21;;;;;;;1.83;1.73;;;;;;;;;;5060203;28;20741;-83
2023/08/29 09:48:55;;;;;;;1.70;1.60;;;;;;;;;;5056630;28;20237;-84
2023/08/29 09:51:24;;;;;;;1.80;1.70;;;;;;;;;;5052944;28;20225;-84
2023/08/29 09:53:52;;;;;;;2.67;1.48;;;;;;;;;;5061889;28;20226;-83
2023/08/29 09:56:21;;;;;;;1.92;1.60;;;;;;;;;;5051132;28;20222;-84
2023/08/29 09:58:49;;;;;;;2.70;1.77;;;;;;;;;;5061614;28;20229;-84
2023/08/29 10:01:17;;;;;;;2.22;1.70;;;;;;;;;;5054424;28;20700;-84
2023/08/29 10:03:44;;;;;;;1.90;1.65;;;;;;;;;;5063055;28;20205;-84
2023/08/29 10:06:13;;;;;;;1.90;1.80;;;;;;;;;;5054354;28;20225;-84
2023/08/29 10:08:43;;;;;;;2.28;2.08;;;;;;;;;;5063019;28;20225;-84
2023/08/29 10:11:10;;;;;;;2.65;1.70;;;;;;;;;;5061562;28;20229;-84
2023/08/29 10:13:40;;;;;;;1.75;1.65;;;;;;;;;;5061729;28;20222;-84
2023/08/29 10:16:08;;;;;;;1.75;1.65;;;;;;;;;;5056394;28;20225;-84
2023/08/29 10:18:35;;;;;;;2.15;1.90;;;;;;;;;;5072118;28;20234;-85
2023/08/29 10:21:03;;;;;;;3.15;1.77;;;;;;;;;;5064076;28;20237;-85
2023/08/29 10:23:32;;;;;;;2.53;1.60;;;;;;;;;;5068856;28;20212;-84
2023/08/29 10:26:01;;;;;;;3.22;1.90;;;;;;;;;;5064820;28;20238;-85
2023/08/29 10:28:30;;;;;;;2.60;1.83;;;;;;;;;;5061445;28;20257;-84
2023/08/29 10:31:00;;;;;;;1.77;1.63;;;;;;;;;;5052445;28;20258;-84
2023/08/29 10:33:28;;;;;;;1.70;1.60;;;;;;;;;;5061921;28;20237;-84
2023/08/29 10:35:55;;;;;;;1.88;1.50;;;;;;;;;;5044053;28;20234;-82
2023/08/29 10:38:25;;;;;;;1.65;1.50;;;;;;;;;;5052443;28;20222;-82
2023/08/29 10:41:02;;;;;;;2.83;1.30;;;;;;;;;;5051973;28;20740;-82
2023/08/29 10:43:30;;;;;;;1.85;1.48;;;;;;;;;;5052425;28;20202;-82
2023/08/29 10:45:59;;;;;;;1.80;1.70;;;;;;;;;;5052128;28;20252;-82
2023/08/29 10:48:41;;;;;;;1.50;1.40;;;;;;;;;;5052013;28;20230;-80
2023/08/29 10:51:11;;;;;;;2.30;1.40;;;;;;;;;;5043870;28;20253;-80
2023/08/29 10:53:39;;;;;;;2.17;1.70;;;;;;;;;;5051234;28;20232;-80
2023/08/29 10:56:07;;;;;;;1.85;1.33;;;;;;;;;;5051859;28;20229;-80
2023/08/29 10:58:35;;;;;;;2.00;1.77;;;;;;;;;;5051873;28;20260;-80
2023/08/29 11:01:04;;;;;;;1.50;1.35;;;;;;;;;;5051338;28;20585;-80
2023/08/29 11:03:42;;;;;;;1.80;1.30;;;;;;;;;;5052109;28;20233;-80
2023/08/29 11:06:09;;;;;;;2.50;1.35;;;;;;;;;;5043670;28;20256;-81
2023/08/29 11:08:36;;;;;;;1.00;1.00;;;;;;;;;;5051819;28;20222;-80
2023/08/29 11:11:19;;;;;;;1.45;1.25;;;;;;;;;;5051524;28;20233;-80
2023/08/29 11:13:59;;;;;;;1.92;1.35;;;;;;;;;;5051681;28;20731;-80
2023/08/29 11:16:28;;;;;;;2.33;1.45;;;;;;;;;;5050976;28;20240;-80
2023/08/29 11:19:16;;;;;;;1.80;1.65;;;;;;;;;;5051352;28;20730;-82
2023/08/29 11:21:44;;;;;;;1.85;1.20;;;;;;;;;;5046820;28;20330;-82
2023/08/29 11:24:12;;;;;;;1.73;1.20;;;;;;;;;;5051855;28;20198;-82
2023/08/29 11:26:39;;;;;;;3.10;1.33;;;;;;;;;;5051560;28;20237;-82
2023/08/29 11:29:07;;;;;;;2.22;1.35;;;;;;;;;;5051503;28;20226;-83
2023/08/29 11:31:39;;;;;;;2.90;1.30;;;;;;;;;;5050840;28;20230;-82
2023/08/29 11:34:12;;;;;;;0.95;0.95;;;;;;;;;;5050927;28;20320;-82
2023/08/29 11:36:40;;;;;;;2.72;1.45;;;;;;;;;;5051217;28;20618;-83
2023/08/29 11:39:08;;;;;;;2.72;1.10;;;;;;;;;;5043066;28;20235;-82
2023/08/29 11:41:35;;;;;;;2.08;1.20;;;;;;;;;;5050995;28;20317;-83
2023/08/29 11:44:02;;;;;;;1.30;1.20;;;;;;;;;;5052166;28;20241;-82
2023/08/29 11:46:33;;;;;;;2.90;1.38;;;;;;;;;;5054294;28;20230;-82
2023/08/29 11:49:01;;;;;;;3.20;1.05;;;;;;;;;;5055800;28;20573;-82
2023/08/29 11:51:28;;;;;;;1.15;1.05;;;;;;;;;;5056766;28;20247;-82
2023/08/29 11:53:55;;;;;;;2.05;1.33;;;;;;;;;;5056255;28;20225;-83
2023/08/29 11:56:22;;;;;;;1.63;1.08;;;;;;;;;;5058899;28;20699;-83
2023/08/29 11:58:51;;;;;;;1.73;1.63;;;;;;;;;;5059857;28;20232;-82
2023/08/29 12:01:18;;;;;;;3.60;1.10;;;;;;;;;;5057407;28;20579;-82
2023/08/29 12:03:45;;;;;;;1.60;1.00;;;;;;;;;;5057447;28;20202;-82
2023/08/29 12:06:15;;;;;;;1.65;1.05;;;;;;;;;;5058225;28;20738;-83
2023/08/29 12:08:43;;;;;;;1.15;1.15;;;;;;;;;;5058575;28;20577;-82
2023/08/29 12:11:12;;;;;;;1.35;1.25;;;;;;;;;;5073904;28;20236;-82
2023/08/29 12:13:41;;;;;;;1.30;1.30;;;;;;;;;;5062996;28;20236;-82
2023/08/29 12:16:14;;;;;;;2.75;1.30;;;;;;;;;;5056544;28;20230;-82
2023/08/29 12:18:41;;;;;;;1.42;1.08;;;;;;;;;;5054405;28;20707;-84
2023/08/29 12:21:14;;;;;;;1.38;1.00;;;;;;;;;;5055688;28;20237;-83
2023/08/29 12:23:42;;;;;;;2.00;1.00;;;;;;;;;;5049022;28;20264;-84
2023/08/29 12:26:09;;;;;;;0.90;0.90;;;;;;;;;;5046554;28;20229;-84
2023/08/29 12:28:37;;;;;;;2.58;1.33;;;;;;;;;;5054933;28;20226;-84
2023/08/29 12:31:04;;;;;;;1.35;1.05;;;;;;;;;;5053988;28;20291;-83
2023/08/29 12:33:32;;;;;;;1.85;0.98;;;;;;;;;;5054784;28;20595;-83
2023/08/29 12:35:59;;;;;;;1.63;1.05;;;;;;;;;;5050902;28;20230;-84
2023/08/29 12:38:28;;;;;;;1.52;1.20;;;;;;;;;;5048288;28;20245;-86
2023/08/29 12:40:55;;;;;;;1.67;0.88;;;;;;;;;;5054026;28;20238;-83
2023/08/29 12:43:23;;;;;;;1.58;1.10;;;;;;;;;;5054233;28;20221;-84
2023/08/29 12:45:51;;;;;;;1.55;0.93;;;;;;;;;;5054215;28;20238;-84
2023/08/29 12:48:20;;;;;;;1.90;1.08;;;;;;;;;;5054132;28;20228;-84
2023/08/29 12:50:47;;;;;;;2.05;0.80;;;;;;;;;;5054111;28;20234;-84
2023/08/29 12:53:14;;;;;;;1.15;1.05;;;;;;;;;;5054608;28;20198;-83
2023/08/29 12:55:43;;;;;;;1.60;1.00;;;;;;;;;;5053258;28;20237;-85
2023/08/29 12:58:10;;;;;;;0.98;0.95;;;;;;;;;;5054756;28;20225;-85
2023/08/29 13:00:38;;;;;;;0.98;0.90;;;;;;;;;;5053469;28;20229;-84
2023/08/29 13:03:05;;;;;;;0.70;0.68;;;;;;;;;;5054209;28;20217;-84
2023/08/29 13:05:32;;;;;;;0.85;0.70;;;;;;;;;;5053635;28;20246;-87
2023/08/29 13:07:59;;;;;;;1.38;1.27;;;;;;;;;;5053658;28;20233;-85
2023/08/29 13:10:26;;;;;;;2.08;1.10;;;;;;;;;;5053149;28;20261;-84
2023/08/29 13:12:54;;;;;;;1.20;1.10;;;;;;;;;;5054500;28;20206;-85
2023/08/29 13:15:21;;;;;;;0.90;0.90;;;;;;;;;;5054073;28;20242;-88
2023/08/29 13:17:49;;;;;;;0.80;0.80;;;;;;;;;;5056043;28;20652;-89
2023/08/29 13:20:17;;;;;;;1.40;1.30;;;;;;;;;;5055156;28;20299;-88
2023/08/29 13:22:45;;;;;;;0.70;0.70;;;;;;;;;;5060549;28;20213;-89
2023/08/29 13:25:13;;;;;;;1.13;1.02;;;;;;;;;;5052744;28;20225;-84
2023/08/29 13:27:40;;;;;;;1.15;1.05;;;;;;;;;;5060730;28;20230;-87
2023/08/29 13:30:10;;;;;;;5.90;1.60;;;;;;;;;;5053632;28;20209;-87
2023/08/29 13:32:37;;;;;;;2.03;1.15;;;;;;;;;;5039317;28;20213;-87
2023/08/29 13:35:05;;;;;;;1.30;0.90;;;;;;;;;;5046865;28;20223;-86
2023/08/29 13:37:33;;;;;;;1.38;1.15;;;;;;;;;;5042591;28;20226;-85
2023/08/29 13:40:00;;;;;;;2.67;0.85;;;;;;;;;;5053155;28;20220;-86
2023/08/29 13:42:27;;;;;;;1.60;1.13;;;;;;;;;;5047501;28;21106;-85
2023/08/29 13:44:56;;;;;;;2.72;1.08;;;;;;;;;;5053374;28;20707;-85
2023/08/29 13:47:25;;;;;;;1.33;1.13;;;;;;;;;;5052816;28;20700;-86
2023/08/29 13:49:53;;;;;;;3.58;1.40;;;;;;;;;;5052572;28;20665;-86
2023/08/29 13:52:20;;;;;;;2.03;1.35;;;;;;;;;;5053067;28;20611;-85
2023/08/29 13:54:47;;;;;;;1.38;1.27;;;;;;;;;;5049968;28;20214;-85
2023/08/29 13:57:14;;;;;;;2.00;1.10;;;;;;;;;;5052448;28;20234;-85
2023/08/29 13:59:41;;;;;;;1.50;1.40;;;;;;;;;;5047570;28;20410;-88
2023/08/29 14:02:08;;;;;;;2.45;1.50;;;;;;;;;;5040827;28;20226;-86
2023/08/29 14:04:37;;;;;;;1.67;1.30;;;;;;;;;;5048714;28;20202;-86
2023/08/29 14:07:04;;;;;;;1.70;1.52;;;;;;;;;;5053075;28;20316;-87
2023/08/29 14:09:31;;;;;;;1.70;1.40;;;;;;;;;;5052498;28;20202;-87
2023/08/29 14:11:58;;;;;;;1.33;1.23;;;;;;;;;;5039512;28;20226;-84
2023/08/29 14:14:25;;;;;;;1.65;1.20;;;;;;;;;;5040108;28;20309;-88
2023/08/29 14:16:53;;;;;;;2.20;1.60;;;;;;;;;;5047853;28;20225;-86
2023/08/29 14:19:20;;;;;;;2.95;1.35;;;;;;;;;;5042493;28;20206;-86
2023/08/29 14:21:49;;;;;;;1.85;1.17;;;;;;;;;;5043655;28;20295;-85
2023/08/29 14:24:16;;;;;;;2.55;1.30;;;;;;;;;;5052886;28;20198;-85
2023/08/29 14:26:43;;;;;;;1.77;1.50;;;;;;;;;;5052954;28;20230;-87
2023/08/29 14:29:10;;;;;;;2.15;1.10;;;;;;;;;;5052465;28;20221;-86
2023/08/29 14:31:37;;;;;;;1.35;1.00;;;;;;;;;;5052632;28;20241;-84
2023/08/29 14:34:04;;;;;;;1.50;1.40;;;;;;;;;;5049427;28;20226;-83
2023/08/29 14:36:31;;;;;;;1.33;1.15;;;;;;;;;;5052193;28;20245;-83
2023/08/29 14:39:00;;;;;;;2.15;1.40;;;;;;;;;;5043492;28;20227;-83
2023/08/29 14:41:27;;;;;;;1.60;1.15;;;;;;;;;;5052177;28;20222;-84
2023/08/29 14:43:54;;;;;;;1.90;1.30;;;;;;;;;;5041322;28;20289;-83
2023/08/29 14:46:21;;;;;;;3.33;1.60;;;;;;;;;;5034058;28;20237;-84
2023/08/29 14:48:49;;;;;;;2.33;1.40;;;;;;;;;;5043317;28;20226;-85
2023/08/29 14:51:16;;;;;;;4.10;1.65;;;;;;;;;;5043221;28;20263;-84
2023/08/29 14:53:43;;;;;;;2.33;1.52;;;;;;;;;;5047407;28;20560;-84
2023/08/29 14:56:11;;;;;;;2.83;1.27;;;;;;;;;;5050955;28;20242;-85
2023/08/29 14:58:38;;;;;;;2.10;1.20;;;;;;;;;;5052030;28;20226;-84
2023/08/29 15:01:05;;;;;;;2.75;1.50;;;;;;;;;;5052008;28;20604;-87
2023/08/29 15:03:32;;;;;;;1.73;1.30;;;;;;;;;;5051518;28;20210;-84
2023/08/29 15:06:00;;;;;;;3.30;1.30;;;;;;;;;;5051176;28;20647;-84
2023/08/29 15:08:27;;;;;;;2.55;1.40;;;;;;;;;;5051145;28;20229;-83
2023/08/29 15:10:54;;;;;;;2.40;1.40;;;;;;;;;;5050769;28;20234;-84
2023/08/29 15:13:24;;;;;;;3.33;1.55;;;;;;;;;;5051628;28;20198;-84
2023/08/29 15:15:51;;;;;;;1.98;1.27;;;;;;;;;;5051379;28;20241;-85
2023/08/29 15:18:19;;;;;;;1.83;1.17;;;;;;;;;;5050725;28;20326;-85
2023/08/29 15:20:46;;;;;;;1.08;1.02;;;;;;;;;;5048758;28;20261;-83
2023/08/29 15:23:14;;;;;;;1.45;1.17;;;;;;;;;;5047497;28;20217;-82
2023/08/29 15:25:42;;;;;;;2.40;1.17;;;;;;;;;;5050627;28;20299;-81
2023/08/29 15:28:09;;;;;;;1.33;1.17;;;;;;;;;;5048708;28;20244;-85
2023/08/29 15:30:38;;;;;;;1.88;1.30;;;;;;;;;;5047503;28;20240;-83
2023/08/29 15:33:06;;;;;;;2.80;1.30;;;;;;;;;;5050976;28;20206;-83
2023/08/29 15:35:33;;;;;;;2.05;1.40;;;;;;;;;;5045311;28;20233;-83
2023/08/29 15:38:00;;;;;;;1.30;1.20;;;;;;;;;;5045797;28;20233;-83
2023/08/29 15:40:27;;;;;;;1.30;1.20;;;;;;;;;;5041904;28;20230;-83
2023/08/29 15:42:54;;;;;;;2.67;1.42;;;;;;;;;;5050919;28;20213;-83
2023/08/29 15:45:21;;;;;;;2.03;1.27;;;;;;;;;;5050416;28;20238;-81
2023/08/29 15:47:52;;;;;;;1.67;1.20;;;;;;;;;;5050499;28;20237;-81
2023/08/29 15:50:19;;;;;;;2.13;1.33;;;;;;;;;;5049817;28;21288;-80
2023/08/29 15:52:46;;;;;;;2.40;1.40;;;;;;;;;;5050796;28;20712;-81
2023/08/29 15:55:13;;;;;;;1.65;1.20;;;;;;;;;;5048445;28;20230;-82
2023/08/29 15:57:40;;;;;;;1.50;1.10;;;;;;;;;;5039327;28;20242;-82
2023/08/29 16:00:14;;;;;;;1.20;1.10;;;;;;;;;;5047527;28;20217;-82
2023/08/29 16:02:41;;;;;;;1.85;1.38;;;;;;;;;;5050415;28;20206;-82
2023/08/29 16:05:09;;;;;;;2.63;1.35;;;;;;;;;;5050463;28;20210;-82
2023/08/29 16:07:36;;;;;;;1.73;1.10;;;;;;;;;;5051045;28;20233;-82
2023/08/29 16:10:04;;;;;;;2.25;1.33;;;;;;;;;;5050138;28;20217;-82
2023/08/29 16:12:31;;;;;;;2.38;1.52;;;;;;;;;;5051876;28;20206;-82
2023/08/29 16:14:58;;;;;;;1.55;1.08;;;;;;;;;;5048847;28;20312;-81
2023/08/29 16:17:25;;;;;;;1.83;1.45;;;;;;;;;;5050747;28;20688;-82
2023/08/29 16:19:53;;;;;;;1.30;1.20;;;;;;;;;;5050494;28;20206;-82
2023/08/29 16:22:21;;;;;;;1.52;1.10;;;;;;;;;;5049999;28;20230;-82
2023/08/29 16:24:48;;;;;;;0.80;0.80;;;;;;;;;;5052329;28;20202;-82
2023/08/29 16:27:15;;;;;;;1.30;1.20;;;;;;;;;;5053793;28;20260;-82
2023/08/29 16:29:42;;;;;;;1.35;1.10;;;;;;;;;;5054773;28;20611;-82
2023/08/29 16:32:09;;;;;;;1.30;1.00;;;;;;;;;;5061795;28;20233;-82
2023/08/29 16:34:36;;;;;;;1.05;1.05;;;;;;;;;;5057925;28;20206;-82
2023/08/29 16:37:03;;;;;;;1.35;1.25;;;;;;;;;;5055893;28;20226;-84
2023/08/29 16:39:32;;;;;;;1.17;1.17;;;;;;;;;;5055015;28;20209;-82
2023/08/29 16:41:59;;;;;;;1.00;0.90;;;;;;;;;;5053671;28;20233;-82
2023/08/29 16:44:26;;;;;;;2.15;0.95;;;;;;;;;;5054303;28;20206;-82
2023/08/29 16:46:53;;;;;;;1.35;0.98;;;;;;;;;;5053692;28;20234;-82
2023/08/29 16:49:20;;;;;;;1.88;1.10;;;;;;;;;;5054035;28;20206;-84
2023/08/29 16:51:47;;;;;;;1.45;1.15;;;;;;;;;;5054290;28;20238;-85
2023/08/29 16:54:15;;;;;;;1.10;1.10;;;;;;;;;;5058765;28;20217;-84
2023/08/29 16:56:44;;;;;;;2.03;1.30;;;;;;;;;;5053935;28;20276;-84
2023/08/29 16:59:12;;;;;;;3.08;1.30;;;;;;;;;;5053814;28;20222;-83
2023/08/29 17:01:39;;;;;;;1.65;1.25;;;;;;;;;;5053606;28;20236;-84
2023/08/29 17:04:06;;;;;;;2.20;1.30;;;;;;;;;;5053862;28;20284;-84
2023/08/29 17:06:34;;;;;;;5.43;1.55;;;;;;;;;;5053831;28;20655;-84
2023/08/29 17:09:03;;;;;;;3.65;1.52;;;;;;;;;;5053702;28;20320;-84
2023/08/29 17:11:30;;;;;;;3.28;1.40;;;;;;;;;;5053269;28;20316;-84
2023/08/29 17:13:58;;;;;;;1.60;1.35;;;;;;;;;;5053866;28;20217;-83
2023/08/29 17:16:25;;;;;;;3.38;1.60;;;;;;;;;;5053314;28;20229;-84
2023/08/29 17:18:52;;;;;;;1.00;1.00;;;;;;;;;;5054132;28;20232;-84
2023/08/29 17:21:19;;;;;;;1.33;1.30;;;;;;;;;;5053675;28;20734;-84
2023/08/29 17:23:46;;;;;;;1.20;1.10;;;;;;;;;;5053528;28;20213;-84
2023/08/29 17:26:14;;;;;;;1.20;1.10;;;;;;;;;;5050911;28;20761;-84
2023/08/29 17:28:42;;;;;;;2.15;1.40;;;;;;;;;;5047520;28;20594;-84
2023/08/29 17:31:12;;;;;;;1.42;1.33;;;;;;;;;;5052401;28;20234;-84
2023/08/29 17:33:39;;;;;;;1.80;1.52;;;;;;;;;;5053834;28;20221;-84
2023/08/29 17:36:06;;;;;;;2.45;1.30;;;;;;;;;;5052166;28;20245;-84
2023/08/29 17:38:34;;;;;;;1.58;1.48;;;;;;;;;;5052305;28;20228;-84
2023/08/29 17:41:01;;;;;;;1.10;1.00;;;;;;;;;;5051817;28;20736;-84
2023/08/29 17:43:28;;;;;;;1.63;1.40;;;;;;;;;;5044618;28;20653;-84
2023/08/29 17:45:56;;;;;;;3.15;1.15;;;;;;;;;;5052822;28;20250;-86
2023/08/29 17:48:25;;;;;;;1.30;1.20;;;;;;;;;;5046838;28;20259;-84
2023/08/29 17:50:57;;;;;;;5.47;1.60;;;;;;;;;;5051701;28;20229;-84
2023/08/29 17:53:24;;;;;;;1.50;1.30;;;;;;;;;;5050230;28;20877;-85
2023/08/29 17:55:53;;;;;;;1.17;1.08;;;;;;;;;;5046828;28;20726;-84
2023/08/29 17:58:21;;;;;;;2.20;1.05;;;;;;;;;;5050197;28;20277;-85
2023/08/29 18:00:48;;;;;;;3.08;1.10;;;;;;;;;;5053003;28;20711;-86
2023/08/29 18:03:15;;;;;;;2.70;1.45;;;;;;;;;;5053653;28;20212;-85
2023/08/29 18:05:48;;;;;;;2.95;1.40;;;;;;;;;;5053607;28;20724;-87
2023/08/29 18:08:15;;;;;;;1.33;1.15;;;;;;;;;;5048653;28;20260;-86
2023/08/29 18:10:42;;;;;;;2.05;1.30;;;;;;;;;;5053080;28;20236;-85
2023/08/29 18:13:09;;;;;;;1.23;1.13;;;;;;;;;;5053057;28;20206;-86
2023/08/29 18:15:38;;;;;;;2.33;1.30;;;;;;;;;;5052996;28;20261;-85
2023/08/29 18:18:16;;;;;;;1.35;1.15;;;;;;;;;;5052994;28;20222;-85
2023/08/29 18:20:43;;;;;;;4.13;2.20;;;;;;;;;;5052971;28;20287;-86
2023/08/29 18:23:12;;;;;;;1.20;1.20;;;;;;;;;;5053361;28;20206;-86
2023/08/29 18:25:39;;;;;;;2.67;1.48;;;;;;;;;;5053710;28;20313;-85
2023/08/29 18:28:07;;;;;;;1.73;1.40;;;;;;;;;;5052914;28;20222;-86
2023/08/29 18:30:34;;;;;;;1.40;1.23;;;;;;;;;;5052476;28;20233;-86
2023/08/29 18:33:03;;;;;;;4.85;1.50;;;;;;;;;;5053235;28;20198;-86
2023/08/29 18:35:30;;;;;;;2.45;1.60;;;;;;;;;;5043633;28;20771;-85
2023/08/29 18:37:57;;;;;;;1.65;1.30;;;;;;;;;;5052411;28;20715;-85
2023/08/29 18:40:26;;;;;;;2.38;1.85;;;;;;;;;;5051904;28;20241;-85
2023/08/29 18:42:53;;;;;;;1.88;1.33;;;;;;;;;;5054857;28;20834;-85
2023/08/29 18:45:20;;;;;;;3.42;1.73;;;;;;;;;;5053499;28;20321;-85
2023/08/29 18:47:47;;;;;;;1.90;1.45;;;;;;;;;;5052786;28;20229;-83
2023/08/29 18:50:15;;;;;;;1.95;1.80;;;;;;;;;;5051961;28;20209;-82
2023/08/29 18:52:42;;;;;;;1.80;1.48;;;;;;;;;;5053447;28;20718;-81
2023/08/29 18:55:10;;;;;;;2.65;1.70;;;;;;;;;;5051310;28;20232;-82
2023/08/29 18:57:39;;;;;;;1.45;1.35;;;;;;;;;;5052410;28;20229;-84
2023/08/29 19:00:07;;;;;;;1.65;1.50;;;;;;;;;;5051527;28;20206;-82
2023/08/29 19:02:34;;;;;;;1.98;1.63;;;;;;;;;;5052147;28;20202;-83
2023/08/29 19:05:03;;;;;;;1.60;1.50;;;;;;;;;;5051514;28;20206;-84
2023/08/29 19:07:30;;;;;;;2.47;1.65;;;;;;;;;;5051477;28;20220;-84
2023/08/29 19:09:58;;;;;;;1.98;1.55;;;;;;;;;;5051607;28;20214;-84
2023/08/29 19:12:25;;;;;;;2.83;1.50;;;;;;;;;;5051084;28;20218;-84
2023/08/29 19:14:54;;;;;;;2.83;1.60;;;;;;;;;;5056805;28;20206;-84
2023/08/29 19:17:21;;;;;;;1.83;1.73;;;;;;;;;;5051597;28;20309;-84
2023/08/29 19:19:48;;;;;;;4.72;2.08;;;;;;;;;;5052391;28;20216;-83
2023/08/29 19:22:15;;;;;;;3.20;2.00;;;;;;;;;;5051225;28;20244;-82
2023/08/29 19:24:42;;;;;;;3.38;2.17;;;;;;;;;;5051900;28;20197;-82
2023/08/29 19:27:09;;;;;;;2.13;1.90;;;;;;;;;;5050908;28;20230;-82
2023/08/29 19:29:36;;;;;;;2.95;2.45;;;;;;;;;;5051913;28;20202;-82
2023/08/29 19:32:05;;;;;;;3.65;2.55;;;;;;;;;;5053102;28;20229;-83
2023/08/29 19:34:32;;;;;;;2.80;2.22;;;;;;;;;;5051304;28;20248;-81